JOKER1 KPVD-KPVD
Flight info
| Callsign | JOKER1 |
|---|---|
| Flight time | N/A |
| Altitude | 37000 |
| Route | KPVD KPVD |
| Aircraft | F22/M-SDE2E3FGHIRWXY/LB1 |
Departure
| Time | 2026-05-06 13:45 |
|---|---|
| Airport | Rhode Island T. F. Green International Airport (KPVD) |
Arrival
| Time | N/A |
|---|---|
| Airport | Rhode Island T. F. Green International Airport (KPVD) |
| Time | Latitude | Longitude | Altitude | Speed | Heading |
|---|---|---|---|---|---|
| 2026-05-06 13:44 | 41.73117 | -71.42420 | 61 ft | 0 kts | 179° |
| 2026-05-06 13:44 | 41.73114 | -71.42442 | 61 ft | 13 kts | 349° |
| 2026-05-06 13:44 | 41.73162 | -71.42377 | 60 ft | 9 kts | 144° |
| 2026-05-06 13:44 | 41.73062 | -71.42162 | 59 ft | 31 kts | 122° |
| 2026-05-06 13:45 | 41.72872 | -71.42244 | 57 ft | 93 kts | 212° |
| 2026-05-06 13:45 | 41.70885 | -71.43800 | 1590 ft | 100 kts | 214° |
| 2026-05-06 13:45 | 41.70283 | -71.44173 | 619 ft | 126 kts | 194° |
| 2026-05-06 13:46 | 41.69339 | -71.44193 | 13590 ft | 168 kts | 185° |
| 2026-05-06 13:46 | 41.68389 | -71.44093 | 12334 ft | 117 kts | 181° |
| 2026-05-06 13:46 | 41.67784 | -71.43949 | 11108 ft | 107 kts | 159° |
| 2026-05-06 13:46 | 41.67801 | -71.43847 | 7814 ft | 158 kts | 177° |
| 2026-05-06 13:47 | 41.68079 | -71.43691 | 4072 ft | 145 kts | 176° |
| 2026-05-06 13:47 | 41.67082 | -71.43507 | 26130 ft | 273 kts | 126° |
| 2026-05-06 13:47 | 42.59242 | -71.10290 | 19320 ft | 540 kts | 93° |
| 2026-05-06 13:47 | 42.60347 | -71.05243 | 17653 ft | 618 kts | 33° |
| 2026-05-06 13:48 | 42.64510 | -71.02007 | 15183 ft | 754 kts | 17° |
| 2026-05-06 13:48 | 43.37271 | -70.64683 | 15639 ft | 803 kts | 11° |
| 2026-05-06 13:48 | 43.42521 | -70.63584 | 17946 ft | 795 kts | 340° |
| 2026-05-06 13:48 | 43.40483 | -70.67141 | 40421 ft | 887 kts | 198° |
| 2026-05-06 13:49 | 43.34140 | -70.66973 | 35813 ft | 912 kts | 199° |
| 2026-05-06 13:49 | 43.30576 | -70.69601 | 31852 ft | 596 kts | 219° |
| 2026-05-06 13:49 | 43.28138 | -70.71233 | 35564 ft | 552 kts | 219° |
| 2026-05-06 13:49 | 43.25234 | -70.73364 | 35816 ft | 415 kts | 144° |
| 2026-05-06 13:50 | 43.22980 | -70.72421 | 34112 ft | 358 kts | 213° |
| 2026-05-06 13:50 | 43.20941 | -70.76014 | 35724 ft | 273 kts | 232° |
| 2026-05-06 13:50 | 43.18739 | -70.78187 | 35792 ft | 582 kts | 198° |
| 2026-05-06 13:50 | 43.14589 | -70.80148 | 35920 ft | 641 kts | 207° |
| 2026-05-06 13:51 | 43.10869 | -70.82815 | 36731 ft | 555 kts | 207° |
| 2026-05-06 13:51 | 42.82898 | -70.70777 | 37379 ft | 536 kts | 207° |
| 2026-05-06 13:51 | 42.81407 | -70.71819 | 36919 ft | 541 kts | 207° |